createdAt,value
2022-10-23T00:03:11.452Z,11.30
2022-10-23T00:08:04.017Z,12.50
2022-10-23T00:12:56.578Z,15.80
2022-10-23T00:17:50.549Z,13.90
2022-10-23T00:22:43.200Z,13.57
2022-10-23T00:27:36.397Z,14.70
2022-10-23T00:32:29.057Z,13.47
2022-10-23T00:37:23.017Z,15.13
2022-10-23T00:42:17.118Z,19.10
2022-10-23T00:47:10.130Z,15.30
2022-10-23T00:52:04.385Z,16.43
2022-10-23T00:57:00.230Z,17.10
2022-10-23T01:01:52.898Z,12.67
2022-10-23T01:06:50.824Z,17.77
2022-10-23T01:11:48.446Z,12.73
2022-10-23T01:16:46.329Z,12.77
2022-10-23T01:21:42.845Z,14.63
2022-10-23T01:26:43.891Z,13.23
2022-10-23T01:31:44.717Z,16.60
2022-10-23T01:36:39.592Z,24.00
2022-10-23T01:41:36.610Z,16.10
2022-10-23T01:46:31.219Z,12.10
2022-10-23T01:51:28.298Z,16.90
2022-10-23T01:56:28.029Z,19.13
2022-10-23T02:01:22.512Z,17.60
2022-10-23T02:06:17.727Z,16.27
2022-10-23T02:11:13.830Z,16.20
2022-10-23T02:16:10.420Z,19.43
2022-10-23T02:21:05.825Z,15.77
2022-10-23T02:26:00.636Z,12.63
2022-10-23T02:30:55.882Z,17.70
2022-10-23T02:35:49.197Z,14.97
2022-10-23T02:40:49.055Z,16.73
2022-10-23T02:45:45.402Z,19.27
2022-10-23T02:50:43.988Z,16.03
2022-10-23T02:55:47.576Z,18.80
2022-10-23T03:00:43.678Z,17.23
2022-10-23T03:05:38.850Z,16.20
2022-10-23T03:10:33.005Z,14.77
2022-10-23T03:15:25.563Z,14.20
2022-10-23T03:20:18.260Z,16.77
2022-10-23T03:25:11.414Z,15.70
2022-10-23T03:30:06.082Z,13.80
2022-10-23T03:35:00.460Z,15.90
2022-10-23T03:39:53.310Z,14.27
2022-10-23T03:44:45.857Z,16.63
2022-10-23T03:49:39.957Z,19.43
2022-10-23T03:54:33.826Z,15.30
2022-10-23T03:59:26.421Z,15.60
2022-10-23T04:04:19.300Z,16.17
2022-10-23T04:14:12.371Z,13.73
2022-10-23T04:19:04.892Z,13.47
2022-10-23T04:23:57.441Z,16.07
2022-10-23T04:28:51.312Z,14.60
2022-10-23T04:33:43.883Z,16.00
2022-10-23T04:38:47.892Z,13.77
2022-10-23T04:43:40.566Z,13.30
2022-10-23T04:48:34.884Z,13.80
2022-10-23T04:53:59.863Z,14.17
2022-10-23T04:59:11.110Z,13.97
2022-10-23T05:04:07.073Z,16.00
2022-10-23T05:09:07.619Z,15.10
2022-10-23T05:14:22.792Z,15.63
2022-10-23T05:19:22.004Z,21.53
2022-10-23T05:24:16.776Z,12.53
2022-10-23T05:29:20.213Z,11.20
2022-10-23T05:34:13.601Z,14.70
2022-10-23T05:39:10.997Z,11.00
2022-10-23T05:44:03.795Z,12.53
2022-10-23T05:49:17.669Z,11.87
2022-10-23T05:54:33.722Z,12.87
2022-10-23T05:59:45.137Z,12.33
2022-10-23T06:04:48.681Z,7.20
2022-10-23T06:10:01.225Z,10.63
2022-10-23T06:14:53.797Z,10.23
2022-10-23T06:19:52.426Z,8.13
2022-10-23T06:24:46.236Z,10.20
2022-10-23T06:29:43.389Z,13.23
2022-10-23T06:34:35.916Z,11.70
2022-10-23T06:39:32.027Z,16.20
2022-10-23T06:44:39.337Z,15.00
2022-10-23T06:49:37.623Z,12.53
2022-10-23T06:54:31.527Z,16.17
2022-10-23T06:59:44.074Z,11.70
2022-10-23T07:04:40.044Z,10.80
2022-10-23T07:09:38.161Z,12.17
2022-10-23T07:14:44.316Z,12.73
2022-10-23T07:19:39.486Z,19.83
2022-10-23T07:24:38.530Z,13.50
2022-10-23T07:29:40.237Z,19.30
2022-10-23T07:34:33.368Z,12.80
2022-10-23T07:39:41.799Z,6.73
2022-10-23T07:44:34.344Z,10.57
2022-10-23T07:49:27.268Z,24.00
2022-10-23T07:54:19.889Z,13.47
2022-10-23T07:59:16.633Z,5.40
2022-10-23T08:04:15.609Z,6.60
2022-10-23T08:09:19.346Z,7.43
2022-10-23T08:14:13.484Z,4.47
2022-10-23T08:19:09.928Z,6.40
2022-10-23T08:24:06.101Z,6.17
2022-10-23T08:28:59.411Z,3.33
2022-10-23T08:33:52.653Z,8.03
2022-10-23T08:38:46.647Z,6.80
2022-10-23T08:43:47.750Z,2.70
2022-10-23T08:48:52.941Z,3.20
2022-10-23T08:54:12.414Z,2.60
2022-10-23T08:59:11.054Z,2.27
2022-10-23T09:04:04.393Z,3.93
2022-10-23T09:09:00.394Z,4.60
2022-10-23T09:14:10.921Z,6.63
2022-10-23T09:19:03.582Z,4.33
2022-10-23T09:23:56.146Z,3.37
2022-10-23T09:28:49.668Z,8.63
2022-10-23T09:33:54.059Z,3.03
2022-10-23T09:38:49.477Z,8.33
2022-10-23T09:43:42.044Z,5.47
2022-10-23T09:48:35.256Z,3.43
2022-10-23T09:53:33.885Z,3.00
2022-10-23T09:58:30.364Z,5.20
2022-10-23T10:03:23.787Z,8.53
2022-10-23T10:08:40.856Z,2.87
2022-10-23T10:13:46.181Z,2.70
2022-10-23T10:18:41.409Z,3.83
2022-10-23T10:23:38.828Z,2.93
2022-10-23T10:28:46.405Z,2.37
2022-10-23T10:33:44.608Z,7.13
2022-10-23T10:38:43.654Z,2.83
2022-10-23T10:43:37.978Z,8.20
2022-10-23T10:48:48.426Z,3.93
2022-10-23T10:54:15.058Z,4.67
2022-10-23T10:59:12.653Z,4.57
2022-10-23T11:04:07.588Z,2.73
2022-10-23T11:09:19.732Z,2.80
2022-10-23T11:14:17.640Z,3.50
2022-10-23T11:19:14.247Z,4.30
2022-10-23T11:24:23.093Z,2.63
2022-10-23T11:29:26.838Z,3.70
2022-10-23T11:34:28.012Z,2.30
2022-10-23T11:39:22.131Z,5.27
2022-10-23T11:44:25.808Z,4.93
2022-10-23T11:49:21.309Z,6.47
2022-10-23T11:54:26.048Z,5.20
2022-10-23T11:59:23.751Z,10.57
2022-10-23T12:04:21.326Z,15.77
2022-10-23T12:09:23.556Z,4.80
2022-10-23T12:14:33.753Z,13.50
2022-10-23T12:19:28.416Z,3.00
2022-10-23T12:24:44.919Z,2.50
2022-10-23T12:29:44.741Z,5.53
2022-10-23T12:34:44.603Z,3.40
2022-10-23T12:39:39.188Z,2.53
2022-10-23T12:44:31.776Z,3.47
2022-10-23T12:49:25.507Z,12.80
2022-10-23T12:54:20.345Z,3.63
2022-10-23T12:59:15.875Z,3.13
2022-10-23T13:04:12.551Z,3.40
2022-10-23T13:09:05.651Z,2.43
2022-10-23T13:14:13.977Z,4.53
2022-10-23T13:19:06.471Z,3.97
2022-10-23T13:23:59.037Z,4.83
2022-10-23T13:28:51.632Z,2.80
2022-10-23T13:33:46.401Z,2.93
2022-10-23T13:38:39.605Z,3.30
2022-10-23T13:43:34.950Z,4.53
2022-10-23T13:48:27.511Z,4.00
2022-10-23T13:53:21.425Z,6.63
2022-10-23T13:58:14.000Z,3.20
2022-10-23T14:03:06.531Z,3.40
2022-10-23T14:07:59.025Z,2.90
2022-10-23T14:12:54.864Z,9.00
2022-10-23T14:17:47.429Z,2.80
2022-10-23T14:22:39.971Z,4.03
2022-10-23T14:27:32.509Z,2.60
2022-10-23T14:32:26.377Z,9.30
2022-10-23T14:37:19.541Z,4.73
2022-10-23T14:42:12.086Z,6.07
2022-10-23T14:47:04.649Z,7.33
2022-10-23T14:51:58.502Z,3.70
2022-10-23T14:56:51.019Z,6.13
2022-10-23T15:01:47.231Z,6.70
2022-10-23T15:06:41.537Z,3.80
2022-10-23T15:11:35.366Z,2.67
2022-10-23T15:16:28.157Z,6.53
2022-10-23T15:21:20.728Z,6.73
2022-10-23T15:26:17.243Z,4.77
2022-10-23T15:36:26.749Z,4.40
2022-10-23T15:41:22.182Z,5.33
2022-10-23T15:46:14.707Z,3.27
2022-10-23T15:51:07.180Z,4.70
2022-10-23T15:56:00.981Z,3.40
2022-10-23T16:00:53.561Z,3.87
2022-10-23T16:05:46.150Z,2.90
2022-10-23T16:10:39.877Z,6.53
2022-10-23T16:15:35.744Z,4.27
2022-10-23T16:20:28.225Z,7.30
2022-10-23T16:25:20.790Z,6.07
2022-10-23T16:30:14.225Z,6.00
2022-10-23T16:35:12.247Z,4.40
2022-10-23T16:40:19.106Z,5.50
2022-10-23T16:45:33.278Z,10.27
2022-10-23T16:50:29.612Z,15.00
2022-10-23T16:55:22.123Z,9.10
2022-10-23T17:00:14.850Z,11.97
2022-10-23T17:05:07.524Z,14.90
2022-10-23T17:10:01.335Z,10.27
2022-10-23T17:14:53.784Z,8.43
2022-10-23T17:19:46.769Z,11.97
2022-10-23T17:24:39.515Z,11.20
2022-10-23T17:29:33.338Z,12.50
2022-10-23T17:34:26.245Z,10.20
2022-10-23T17:39:20.537Z,9.17
2022-10-23T17:44:13.114Z,6.47
2022-10-23T17:49:06.939Z,10.60
2022-10-23T17:54:05.704Z,13.13
2022-10-23T17:59:00.485Z,5.67
2022-10-23T18:03:53.452Z,10.93
2022-10-23T18:08:48.034Z,7.93
2022-10-23T18:13:40.483Z,11.03
2022-10-23T18:18:32.970Z,7.20
2022-10-23T18:23:25.514Z,6.33
2022-10-23T18:28:19.902Z,7.50
2022-10-23T18:33:12.438Z,7.07
2022-10-23T18:38:05.130Z,8.43
2022-10-23T18:42:57.673Z,11.30
2022-10-23T18:47:51.512Z,8.70
2022-10-23T18:52:43.978Z,5.13
2022-10-23T18:57:36.832Z,9.53
2022-10-23T19:02:29.532Z,9.60
2022-10-23T19:07:23.568Z,8.10
2022-10-23T19:12:17.270Z,7.53
2022-10-23T19:17:11.906Z,12.90
2022-10-23T19:22:04.985Z,9.73
2022-10-23T19:27:00.966Z,10.67
2022-10-23T19:31:53.628Z,15.07
2022-10-23T19:36:46.266Z,13.20
2022-10-23T19:41:38.787Z,14.80
2022-10-23T19:46:32.621Z,17.10
2022-10-23T19:51:25.121Z,15.27
2022-10-23T19:56:17.578Z,11.43
2022-10-23T20:01:11.769Z,13.10
2022-10-23T20:06:08.415Z,13.40
2022-10-23T20:11:00.867Z,13.50
2022-10-23T20:15:53.324Z,11.43
2022-10-23T20:20:45.832Z,12.00
2022-10-23T20:25:39.619Z,13.10
2022-10-23T20:30:32.502Z,12.57
2022-10-23T20:35:24.962Z,12.77
2022-10-23T20:40:17.497Z,11.60
2022-10-23T20:45:11.884Z,12.27
2022-10-23T20:50:04.880Z,13.27
2022-10-23T20:54:57.459Z,9.67
2022-10-23T20:59:49.939Z,11.33
2022-10-23T21:04:43.938Z,13.17
2022-10-23T21:09:37.747Z,9.63
2022-10-23T21:14:30.512Z,12.03
2022-10-23T21:19:23.121Z,7.10
2022-10-23T21:24:17.500Z,7.23
2022-10-23T21:29:18.398Z,6.13
2022-10-23T21:34:11.904Z,7.47
2022-10-23T21:39:05.172Z,3.63
2022-10-23T21:44:00.000Z,7.80
2022-10-23T21:48:52.729Z,10.30
2022-10-23T21:53:45.372Z,8.77
2022-10-23T21:58:37.963Z,7.30
2022-10-23T22:03:31.866Z,7.70
2022-10-23T22:08:24.389Z,9.67
2022-10-23T22:13:16.964Z,11.77
2022-10-23T22:18:09.453Z,12.53
2022-10-23T22:23:03.337Z,6.90
2022-10-23T22:27:55.870Z,9.53
2022-10-23T22:32:48.403Z,7.03
2022-10-23T22:37:41.005Z,8.60
2022-10-23T22:42:35.847Z,9.73
2022-10-23T22:47:29.973Z,8.27
2022-10-23T22:52:22.476Z,9.07
2022-10-23T22:57:15.020Z,11.40
2022-10-23T23:02:09.164Z,10.70
2022-10-23T23:07:01.685Z,8.30
2022-10-23T23:11:54.218Z,9.30
2022-10-23T23:16:46.752Z,10.83
2022-10-23T23:21:40.716Z,5.93
2022-10-23T23:26:33.326Z,11.20
2022-10-23T23:31:26.990Z,13.83
2022-10-23T23:36:20.312Z,15.77
2022-10-23T23:41:15.533Z,7.47
2022-10-23T23:46:08.026Z,6.70
2022-10-23T23:51:00.604Z,9.83
2022-10-23T23:55:53.203Z,15.27
